Time;durP1;ratioP1;P1;durP2;ratioP2;P2;SDS_P1;SDS_P2;PMS_P1;PMS_P2;Temp;Humidity;BMP_temperature;BMP_pressure;BME280_temperature;BME280_humidity;BME280_pressure;Samples;Min_cycle;Max_cycle;Signal;HPM_P1;HPM_P2
2023/04/13 00:04:16;;;;;;;14.98;6.22;;;;;;;14.55;88.95;98446.97;10368602;28;20120;-78
2023/04/13 00:09:17;;;;;;;11.38;5.82;;;;;;;14.53;89.02;98427.69;10335519;28;20062;-78
2023/04/13 00:14:18;;;;;;;10.75;6.10;;;;;;;14.34;89.68;98390.47;10333481;28;20456;-80
2023/04/13 00:19:19;;;;;;;12.55;6.13;;;;;;;14.46;89.91;98435.03;10333590;28;20055;-77
2023/04/13 00:24:21;;;;;;;18.15;6.60;;;;;;;14.26;89.80;98392.72;10332818;28;20129;-79
2023/04/13 00:29:22;;;;;;;13.00;5.90;;;;;;;14.40;90.17;98450.16;10333068;28;20053;-79
2023/04/13 00:34:32;;;;;;;13.75;5.57;;;;;;;13.55;91.18;98328.13;10333810;28;20038;-85
2023/04/13 00:39:33;;;;;;;12.32;5.13;;;;;;;14.07;89.90;98406.28;10333599;28;20506;-80
2023/04/13 00:44:35;;;;;;;9.13;5.00;;;;;;;13.37;89.99;98305.91;10333426;28;20034;-79
2023/04/13 00:49:36;;;;;;;9.00;4.32;;;;;;;13.81;90.13;98391.59;10331815;28;20053;-79
2023/04/13 00:54:37;;;;;;;9.98;4.78;;;;;;;13.99;90.29;98440.53;10332449;28;20066;-76
2023/04/13 00:59:38;;;;;;;7.53;3.58;;;;;;;14.28;90.14;98494.78;10344538;28;20042;-78
2023/04/13 01:04:41;;;;;;;8.00;4.22;;;;;;;13.83;90.11;98445.56;10373058;28;20097;-80
2023/04/13 01:09:51;;;;;;;8.30;4.10;;;;;;;14.24;90.53;98499.81;10347835;28;20096;-78
2023/04/13 01:15:18;;;;;;;14.43;4.15;;;;;;;14.35;89.85;98498.13;10332819;28;20418;-79
2023/04/13 01:20:20;;;;;;;10.75;4.03;;;;;;;14.31;89.25;98497.00;10332790;28;20046;-81
2023/04/13 01:25:25;;;;;;;6.53;3.90;;;;;;;14.30;89.97;98482.03;10332607;28;20077;-82
2023/04/13 01:30:28;;;;;;;7.07;3.58;;;;;;;13.74;89.31;98388.28;10331358;28;20100;-79
2023/04/13 01:35:30;;;;;;;5.97;3.17;;;;;;;14.23;89.53;98459.97;10331143;28;20038;-83
2023/04/13 01:40:35;;;;;;;9.90;3.33;;;;;;;14.19;89.64;98466.84;10339490;28;20042;-80
2023/04/13 01:45:54;;;;;;;6.75;3.20;;;;;;;13.60;90.02;98371.72;10331975;28;20074;-82
2023/04/13 01:51:00;;;;;;;6.72;3.35;;;;;;;13.24;89.25;98344.25;10331658;28;20042;-81
2023/04/13 01:56:03;;;;;;;6.18;2.90;;;;;;;14.05;89.24;98475.09;10331790;28;20046;-80
2023/04/13 02:01:06;;;;;;;5.47;2.70;;;;;;;14.08;88.79;98489.84;10337315;28;20054;-80
2023/04/13 02:06:08;;;;;;;4.18;2.22;;;;;;;13.99;88.20;98483.25;10339011;28;20046;-80
2023/04/13 02:11:11;;;;;;;6.53;2.15;;;;;;;14.05;87.39;98507.16;10344215;28;20058;-82
2023/04/13 02:16:12;;;;;;;4.88;1.50;;;;;;;13.76;86.89;98444.91;10380247;28;20064;-79
2023/04/13 02:21:13;;;;;;;3.10;1.67;;;;;;;14.10;86.21;98488.56;10378567;28;20095;-80
2023/04/13 02:26:15;;;;;;;3.45;1.38;;;;;;;14.12;85.69;98486.47;10376798;28;20544;-80
2023/04/13 02:31:18;;;;;;;2.55;1.20;;;;;;;13.95;84.99;98461.56;10348685;28;20061;-79
2023/04/13 02:36:20;;;;;;;2.92;1.48;;;;;;;14.12;84.78;98488.34;10378404;28;20108;-79
2023/04/13 02:41:21;;;;;;;3.63;1.40;;;;;;;14.09;84.63;98475.44;10352757;28;20049;-85
2023/04/13 02:46:22;;;;;;;3.33;1.13;;;;;;;13.81;84.18;98452.19;10349524;28;20038;-82
2023/04/13 02:51:23;;;;;;;2.80;1.10;;;;;;;14.16;84.35;98519.66;10336985;28;20046;-82
2023/04/13 02:56:27;;;;;;;2.90;0.90;;;;;;;14.11;84.43;98522.22;10336752;28;20854;-82
2023/04/13 03:01:28;;;;;;;2.63;1.17;;;;;;;13.95;84.44;98512.28;10351980;28;20065;-84
2023/04/13 03:06:30;;;;;;;3.88;1.30;;;;;;;14.16;84.02;98561.59;10378079;28;20038;-82
2023/04/13 03:11:30;;;;;;;3.22;1.20;;;;;;;13.81;83.57;98497.56;10377021;28;20083;-80
2023/04/13 03:16:31;;;;;;;2.85;1.10;;;;;;;14.21;83.17;98558.19;10376557;28;20046;-81
2023/04/13 03:21:33;;;;;;;3.60;1.38;;;;;;;13.87;83.25;98496.63;10376406;28;20124;-80
2023/04/13 03:26:34;;;;;;;3.67;1.63;;;;;;;13.95;83.12;98512.28;10376984;28;20125;-80
2023/04/13 03:31:34;;;;;;;3.55;2.05;;;;;;;14.09;83.38;98550.19;10376839;28;20178;-80
2023/04/13 03:36:35;;;;;;;5.80;2.80;;;;;;;13.51;83.30;98460.34;10376396;28;20081;-80
2023/04/13 03:41:36;;;;;;;5.25;2.50;;;;;;;14.02;83.23;98522.81;10376147;28;20053;-80
2023/04/13 03:46:37;;;;;;;5.38;2.53;;;;;;;14.04;83.45;98526.09;10375889;28;20401;-77
2023/04/13 03:51:38;;;;;;;5.10;2.42;;;;;;;13.92;83.17;98499.41;10360630;28;20521;-80
2023/04/13 03:56:39;;;;;;;4.85;2.20;;;;;;;14.08;83.36;98520.03;10375515;28;20528;-76
2023/04/13 04:01:40;;;;;;;4.75;2.47;;;;;;;14.11;83.40;98526.75;10374631;28;20069;-77
2023/04/13 04:06:40;;;;;;;6.05;2.63;;;;;;;13.96;83.44;98519.22;10375846;28;20092;-78
2023/04/13 04:11:41;;;;;;;6.63;2.60;;;;;;;13.68;83.46;98474.59;10375315;28;20489;-86
2023/04/13 04:16:42;;;;;;;7.38;2.45;;;;;;;13.27;83.36;98414.22;10374885;28;20052;-79
2023/04/13 04:21:43;;;;;;;6.38;2.50;;;;;;;14.10;83.73;98560.66;10373902;28;20049;-77
2023/04/13 04:26:49;;;;;;;5.70;2.40;;;;;;;13.67;84.20;98496.97;10373800;28;20038;-76
2023/04/13 04:31:52;;;;;;;4.32;2.50;;;;;;;14.10;84.04;98574.00;10373893;28;20092;-79
2023/04/13 04:36:54;;;;;;;5.20;2.28;;;;;;;14.25;84.26;98584.22;10373474;28;20553;-79
2023/04/13 04:42:01;;;;;;;4.22;2.63;;;;;;;14.26;84.32;98593.03;10371275;28;20053;-76
2023/04/13 04:47:03;;;;;;;5.32;2.50;;;;;;;14.23;84.33;98586.28;10331969;28;20053;-76
2023/04/13 04:52:03;;;;;;;3.72;2.50;;;;;;;14.30;84.56;98610.22;10333098;28;20046;-78
2023/04/13 04:57:04;;;;;;;7.30;2.58;;;;;;;14.29;84.42;98619.25;10344680;28;20049;-78
2023/04/13 05:02:06;;;;;;;5.07;2.70;;;;;;;13.76;84.74;98522.28;10372069;28;20116;-80
2023/04/13 05:07:08;;;;;;;6.15;2.33;;;;;;;14.20;84.58;98594.78;10372838;28;20124;-80
2023/04/13 05:12:11;;;;;;;6.70;2.38;;;;;;;13.82;84.89;98533.88;10372368;28;20567;-78
2023/04/13 05:17:11;;;;;;;4.05;1.98;;;;;;;14.31;84.88;98606.50;10373033;28;20053;-79
2023/04/13 05:22:14;;;;;;;4.05;1.90;;;;;;;14.13;85.35;98576.22;10373056;28;20505;-80
2023/04/13 05:27:16;;;;;;;3.13;1.88;;;;;;;14.31;85.62;98601.97;10372575;28;20386;-81
2023/04/13 05:32:17;;;;;;;3.20;1.70;;;;;;;14.30;85.81;98600.34;10371533;28;20041;-77
2023/04/13 05:37:17;;;;;;;4.20;1.70;;;;;;;14.09;86.16;98596.44;10372906;28;20137;-76
2023/04/13 05:42:18;;;;;;;3.65;1.55;;;;;;;14.10;86.74;98630.09;10371897;28;20046;-79
2023/04/13 05:47:22;;;;;;;2.60;1.50;;;;;;;14.00;87.65;98643.22;10370782;28;20055;-82
2023/04/13 05:52:23;;;;;;;3.80;1.40;;;;;;;13.92;88.00;98648.88;10371500;28;20073;-78
2023/04/13 05:57:23;;;;;;;5.80;1.40;;;;;;;13.84;89.09;98639.34;10372021;28;20465;-76
2023/04/13 06:02:27;;;;;;;3.10;1.38;;;;;;;13.45;90.20;98614.13;10371569;28;20069;-73
2023/04/13 06:07:28;;;;;;;3.28;1.63;;;;;;;13.49;92.10;98655.31;10372064;28;20068;-75
2023/04/13 06:12:29;;;;;;;3.35;1.63;;;;;;;13.55;93.24;98662.41;10371866;28;20145;-74
2023/04/13 06:17:30;;;;;;;4.15;1.85;;;;;;;13.54;93.67;98663.44;10370927;28;20041;-76
2023/04/13 06:22:31;;;;;;;4.70;1.58;;;;;;;13.27;94.90;98646.19;10371566;28;20463;-76
2023/04/13 06:27:33;;;;;;;3.35;1.60;;;;;;;13.38;96.75;98691.56;10371103;28;20038;-78
2023/04/13 06:32:34;;;;;;;3.53;2.00;;;;;;;13.37;97.31;98697.13;10371322;28;20049;-77
2023/04/13 06:37:35;;;;;;;3.80;2.30;;;;;;;13.04;97.98;98634.34;10371336;28;20053;-77
2023/04/13 06:42:36;;;;;;;10.23;2.60;;;;;;;13.21;98.78;98664.69;10371285;28;20046;-77
2023/04/13 06:47:40;;;;;;;3.83;2.45;;;;;;;13.03;99.18;98640.75;10375938;28;20548;-77
2023/04/13 06:52:43;;;;;;;3.95;2.40;;;;;;;13.45;99.67;98694.16;10378012;28;20045;-75
2023/04/13 06:57:44;;;;;;;3.88;2.42;;;;;;;12.92;100.00;98641.50;10377995;28;20543;-76
2023/04/13 07:02:45;;;;;;;5.22;2.00;;;;;;;13.21;100.00;98718.00;10377851;28;20129;-75
2023/04/13 07:07:45;;;;;;;2.50;1.80;;;;;;;12.83;100.00;98696.94;10376994;28;20062;-77
2023/04/13 07:12:46;;;;;;;4.45;1.70;;;;;;;12.85;100.00;98713.53;10377508;28;20512;-75
2023/04/13 07:17:48;;;;;;;3.70;1.60;;;;;;;12.50;100.00;98660.84;10377789;28;20385;-76
2023/04/13 07:22:49;;;;;;;4.00;1.45;;;;;;;12.64;100.00;98700.66;10376429;28;20413;-76
2023/04/13 07:27:49;;;;;;;5.22;1.40;;;;;;;12.41;100.00;98687.97;10376245;28;20044;-76
2023/04/13 07:32:50;;;;;;;2.70;1.65;;;;;;;12.73;100.00;98747.28;10376533;28;20421;-78
2023/04/13 07:37:51;;;;;;;3.22;1.38;;;;;;;12.76;100.00;98734.34;10376845;28;20041;-77
2023/04/13 07:42:52;;;;;;;2.08;1.17;;;;;;;12.53;100.00;98704.84;10348742;28;20132;-76
2023/04/13 07:47:53;;;;;;;5.32;0.93;;;;;;;12.71;100.00;98742.19;10359251;28;20118;-79
2023/04/13 07:52:54;;;;;;;1.35;0.60;;;;;;;12.67;100.00;98734.84;10375904;28;20049;-74
2023/04/13 07:57:55;;;;;;;5.40;0.90;;;;;;;12.50;100.00;98727.44;10376023;28;20498;-75
2023/04/13 08:02:56;;;;;;;0.95;0.60;;;;;;;11.91;100.00;98646.28;10374926;28;20477;-75
2023/04/13 08:07:56;;;;;;;3.13;0.57;;;;;;;12.22;100.00;98695.13;10374657;28;20057;-75
2023/04/13 08:12:58;;;;;;;0.40;0.30;;;;;;;12.29;99.44;98707.38;10375154;28;20050;-75
2023/04/13 08:17:59;;;;;;;2.25;0.40;;;;;;;12.25;98.73;98700.03;10373965;28;20405;-75
2023/04/13 08:23:00;;;;;;;0.98;0.28;;;;;;;12.57;98.42;98728.19;10374718;28;20038;-76
2023/04/13 08:28:00;;;;;;;0.68;0.28;;;;;;;12.13;98.09;98643.22;10374491;28;20041;-76
2023/04/13 08:33:01;;;;;;;1.35;0.32;;;;;;;12.31;97.32;98660.00;10373505;28;20041;-76
2023/04/13 08:38:03;;;;;;;0.73;0.20;;;;;;;12.83;96.30;98709.47;10374335;28;20434;-74
2023/04/13 08:43:04;;;;;;;0.30;0.10;;;;;;;12.99;95.23;98727.53;10374049;28;20041;-76
2023/04/13 08:48:09;;;;;;;5.05;0.30;;;;;;;13.07;94.24;98721.88;10373154;28;20084;-74
2023/04/13 08:53:09;;;;;;;;;;;;;;;13.45;92.79;98740.28;10374036;28;20304;-75
2023/04/13 08:58:19;;;;;;;0.70;0.20;;;;;;;13.12;91.85;98692.69;10372874;28;19917;-74
2023/04/13 09:03:23;;;;;;;0.70;0.30;;;;;;;13.04;91.60;98679.69;10373523;28;20038;-76
2023/04/13 09:08:25;;;;;;;1.73;0.30;;;;;;;13.51;91.92;98727.91;10373017;28;20057;-75
2023/04/13 09:13:26;;;;;;;1.55;0.50;;;;;;;13.31;89.53;98716.69;10373031;28;20046;-75
2023/04/13 09:18:27;;;;;;;0.57;0.30;;;;;;;13.45;88.70;98753.63;10372849;28;20042;-75
2023/04/13 09:23:28;;;;;;;3.70;0.75;;;;;;;13.46;88.08;98749.09;10372089;28;20042;-73
2023/04/13 09:28:29;;;;;;;3.85;0.50;;;;;;;13.54;87.83;98748.00;10372296;28;20038;-75
2023/04/13 09:33:45;;;;;;;1.85;0.70;;;;;;;13.58;86.57;98744.66;10372327;28;20413;-76
2023/04/13 09:38:51;;;;;;;2.70;1.02;;;;;;;13.75;84.88;98736.00;10371763;28;20042;-77
2023/04/13 09:43:52;;;;;;;4.30;1.20;;;;;;;13.51;84.52;98681.75;10372270;28;20070;-74
2023/04/13 09:49:03;;;;;;;2.42;1.42;;;;;;;13.97;83.32;98745.13;10372352;28;20070;-76
2023/04/13 09:54:05;;;;;;;4.00;1.42;;;;;;;13.80;82.79;98698.78;10371516;28;20042;-75
2023/04/13 09:59:06;;;;;;;3.72;1.60;;;;;;;14.25;81.71;98731.09;10371899;28;20073;-76
2023/04/13 10:04:08;;;;;;;3.25;1.30;;;;;;;14.55;79.28;98730.22;10371317;28;20061;-75
2023/04/13 10:09:09;;;;;;;2.42;1.20;;;;;;;15.04;78.09;98650.50;10372005;28;20132;-77
2023/04/13 10:14:18;;;;;;;3.75;1.40;;;;;;;15.98;74.97;98722.31;10371214;28;20052;-75
2023/04/13 10:19:32;;;;;;;4.43;1.25;;;;;;;16.10;72.59;98708.84;10373158;28;20038;-77
2023/04/13 10:24:33;;;;;;;2.67;1.10;;;;;;;15.99;71.05;98731.97;10379301;28;20042;-78
2023/04/13 10:29:34;;;;;;;6.43;1.20;;;;;;;15.51;70.83;98669.81;10380334;28;20482;-75
2023/04/13 10:34:38;;;;;;;3.10;1.08;;;;;;;16.16;69.93;98767.63;10378188;28;20046;-76
2023/04/13 10:39:39;;;;;;;;;;;;;;;16.65;69.70;98777.75;10377704;28;20045;-75
2023/04/13 10:44:50;;;;;;;7.57;1.40;;;;;;;16.37;69.60;98784.84;10378090;28;20293;-78
2023/04/13 10:49:51;;;;;;;3.92;1.40;;;;;;;16.07;68.89;98728.91;10377726;28;20033;-78
2023/04/13 10:54:52;;;;;;;5.38;1.40;;;;;;;16.01;68.66;98747.81;10376707;28;20034;-78
2023/04/13 10:59:56;;;;;;;4.38;1.75;;;;;;;16.64;67.82;98809.13;10378016;28;20494;-75
2023/04/13 11:04:58;;;;;;;4.60;1.52;;;;;;;16.54;66.88;98802.78;10377721;28;20045;-76
2023/04/13 11:10:00;;;;;;;3.10;1.38;;;;;;;16.59;68.03;98814.38;10377615;28;20108;-77
2023/04/13 11:15:01;;;;;;;5.03;1.70;;;;;;;16.22;67.11;98800.66;10376871;28;20038;-76
2023/04/13 11:20:05;;;;;;;5.13;2.03;;;;;;;15.58;67.68;98781.25;10376973;28;20041;-78
2023/04/13 11:25:07;;;;;;;5.38;2.35;;;;;;;15.56;68.67;98812.81;10376406;28;20034;-77
2023/04/13 11:30:09;;;;;;;5.72;2.65;;;;;;;15.58;67.69;98774.03;10375517;28;20053;-75
2023/04/13 11:35:16;;;;;;;4.78;2.13;;;;;;;15.64;66.27;98799.03;10375734;28;20393;-79
2023/04/13 11:40:26;;;;;;;4.63;2.50;;;;;;;15.85;66.26;98835.88;10376987;28;20128;-75
2023/04/13 11:45:29;;;;;;;5.22;2.28;;;;;;;15.91;65.86;98788.59;10375681;28;20063;-78
2023/04/13 11:50:30;;;;;;;3.70;2.08;;;;;;;16.57;64.12;98851.38;10376724;28;20041;-75
2023/04/13 11:55:31;;;;;;;3.33;2.20;;;;;;;16.46;64.38;98819.28;10376287;28;20042;-76
2023/04/13 12:00:35;;;;;;;7.53;2.40;;;;;;;16.66;63.92;98863.31;10375139;28;20038;-74
2023/04/13 12:05:36;;;;;;;5.85;2.28;;;;;;;16.04;64.42;98852.59;10374897;28;20409;-75
2023/04/13 12:10:37;;;;;;;6.60;2.25;;;;;;;16.16;65.14;98916.84;10375725;28;20141;-77
2023/04/13 12:15:39;;;;;;;4.47;2.67;;;;;;;15.74;65.46;98884.97;10375019;28;20494;-75
2023/04/13 12:20:42;;;;;;;3.70;2.40;;;;;;;15.74;65.38;98922.44;10374780;28;20046;-79
2023/04/13 12:26:01;;;;;;;5.15;2.30;;;;;;;15.69;65.40;98935.72;10374864;28;20037;-76
2023/04/13 12:31:10;;;;;;;6.13;2.55;;;;;;;15.55;65.87;98934.28;10364466;28;20586;-78
2023/04/13 12:36:11;;;;;;;4.80;2.78;;;;;;;15.35;65.59;98954.22;10355041;28;20050;-79
2023/04/13 12:41:12;;;;;;;6.22;2.70;;;;;;;15.00;65.65;98930.94;10370246;28;20042;-74
2023/04/13 12:46:13;;;;;;;8.13;3.45;;;;;;;15.00;65.30;98952.31;10360660;28;20061;-75
2023/04/13 12:51:14;;;;;;;5.15;2.60;;;;;;;15.16;65.83;98984.78;10347034;28;20505;-76
2023/04/13 12:56:15;;;;;;;4.28;2.65;;;;;;;14.95;65.43;98960.22;10347327;28;20074;-74
2023/04/13 13:01:16;;;;;;;7.00;3.17;;;;;;;14.88;65.64;98972.88;10361460;28;20516;-79
2023/04/13 13:06:16;;;;;;;4.93;3.10;;;;;;;15.09;65.77;98992.94;10340125;28;20053;-77
2023/04/13 13:11:17;;;;;;;7.97;2.67;;;;;;;15.12;64.95;98997.81;10354151;28;20061;-77
2023/04/13 13:16:19;;;;;;;7.97;3.03;;;;;;;15.04;64.00;98974.06;10372349;28;20084;-77
2023/04/13 13:21:21;;;;;;;3.95;2.45;;;;;;;15.17;62.68;98983.75;10372124;28;20069;-80
2023/04/13 13:26:22;;;;;;;6.28;3.05;;;;;;;14.42;62.77;98870.16;10368595;28;20045;-78
2023/04/13 13:31:23;;;;;;;6.00;2.70;;;;;;;14.69;62.57;98920.53;10340555;28;20164;-77
2023/04/13 13:36:25;;;;;;;5.18;3.25;;;;;;;15.26;62.87;99019.81;10369009;28;20524;-78
2023/04/13 13:41:26;;;;;;;3.60;3.10;;;;;;;14.89;63.23;98960.34;10371355;28;20092;-78
2023/04/13 13:46:26;;;;;;;4.70;3.25;;;;;;;14.58;62.90;98933.66;10372458;28;20406;-77
2023/04/13 13:51:29;;;;;;;4.38;3.13;;;;;;;15.12;63.25;99034.44;10330522;28;20054;-78
2023/04/13 13:56:30;;;;;;;6.88;2.88;;;;;;;14.50;62.76;98957.97;10336870;28;20042;-74
2023/04/13 14:01:31;;;;;;;5.70;3.47;;;;;;;14.89;62.50;99037.88;10339228;28;20042;-76
2023/04/13 14:06:32;;;;;;;4.82;2.80;;;;;;;14.61;61.45;99007.22;10340195;28;20042;-77
2023/04/13 14:11:33;;;;;;;3.72;2.60;;;;;;;14.35;61.42;98977.09;10339951;28;20061;-77
2023/04/13 14:16:34;;;;;;;3.83;2.45;;;;;;;14.31;60.95;98964.44;10339111;28;20507;-79
2023/04/13 14:21:35;;;;;;;5.60;2.70;;;;;;;14.83;60.61;99047.59;10344552;28;20185;-77
2023/04/13 14:26:37;;;;;;;4.15;2.30;;;;;;;14.59;60.27;99015.44;10379228;28;20528;-78
2023/04/13 14:31:38;;;;;;;4.43;2.42;;;;;;;14.66;59.90;99030.56;10372372;28;20046;-79
2023/04/13 14:36:39;;;;;;;4.70;2.65;;;;;;;14.64;60.18;99051.38;10359106;28;20049;-78
2023/04/13 14:41:39;;;;;;;4.32;2.40;;;;;;;14.26;60.86;98999.00;10352862;28;20041;-76
2023/04/13 14:46:40;;;;;;;6.03;3.00;;;;;;;14.40;61.75;99035.22;10377933;28;20545;-77
2023/04/13 14:51:41;;;;;;;7.13;2.65;;;;;;;14.47;62.46;99054.63;10377644;28;20050;-77
2023/04/13 14:56:42;;;;;;;4.60;2.83;;;;;;;13.91;62.72;98986.28;10378153;28;20053;-77
2023/04/13 15:01:42;;;;;;;4.50;2.83;;;;;;;14.31;63.09;99056.06;10337340;28;20066;-78
2023/04/13 15:06:46;;;;;;;3.83;2.65;;;;;;;14.10;62.60;99043.16;10353814;28;20481;-77
2023/04/13 15:11:48;;;;;;;5.23;2.70;;;;;;;14.05;62.83;99061.69;10360031;28;20066;-79
2023/04/13 15:16:48;;;;;;;5.03;2.85;;;;;;;13.14;63.12;98938.59;10352818;28;20280;-79
2023/04/13 15:21:49;;;;;;;4.68;2.80;;;;;;;13.46;63.13;99000.69;10377051;28;20044;-83
2023/04/13 15:26:50;;;;;;;4.60;2.33;;;;;;;13.80;62.69;99059.91;10377536;28;20052;-79
2023/04/13 15:31:50;;;;;;;4.65;2.20;;;;;;;13.61;62.78;99056.41;10357841;28;20046;-77
2023/04/13 15:36:51;;;;;;;4.70;2.38;;;;;;;13.15;62.64;98990.06;10354427;28;20041;-78
2023/04/13 15:41:53;;;;;;;4.13;2.00;;;;;;;13.62;62.67;99095.38;10389522;28;20049;-77
2023/04/13 15:46:54;;;;;;;6.28;2.60;;;;;;;13.57;62.18;99100.53;10373088;28;20042;-79
2023/04/13 15:51:55;;;;;;;6.93;2.20;;;;;;;13.45;62.75;99097.75;10375868;28;20120;-77
2023/04/13 15:56:56;;;;;;;4.32;2.45;;;;;;;12.97;63.05;99034.28;10375869;28;20091;-77
2023/04/13 16:01:57;;;;;;;4.18;2.50;;;;;;;13.04;63.22;99066.22;10357315;28;20129;-78
2023/04/13 16:06:57;;;;;;;4.85;2.47;;;;;;;13.41;63.39;99135.78;10373595;28;20073;-79
2023/04/13 16:12:01;;;;;;;3.78;2.50;;;;;;;13.34;63.55;99134.97;10353120;28;20050;-79
2023/04/13 16:17:03;;;;;;;3.88;2.25;;;;;;;13.32;63.58;99142.41;10364133;28;20045;-84
2023/04/13 16:22:04;;;;;;;4.07;2.30;;;;;;;12.66;63.97;99053.75;10360165;28;20300;-81
2023/04/13 16:27:06;;;;;;;5.38;2.50;;;;;;;12.89;64.08;99109.19;10361636;28;20046;-77
2023/04/13 16:32:07;;;;;;;4.68;2.40;;;;;;;12.52;64.46;99071.63;10356477;28;20491;-78
2023/04/13 16:37:08;;;;;;;3.42;2.17;;;;;;;12.90;65.49;99160.63;10339640;28;20042;-79
2023/04/13 16:42:11;;;;;;;4.82;2.40;;;;;;;12.42;65.38;99099.75;10336091;28;20406;-77
2023/04/13 16:47:11;;;;;;;7.72;2.55;;;;;;;12.94;65.53;99193.81;10357830;28;20413;-79
2023/04/13 16:52:12;;;;;;;8.93;2.28;;;;;;;12.88;65.88;99203.47;10338614;28;20042;-80
2023/04/13 16:57:13;;;;;;;6.25;2.00;;;;;;;12.79;66.71;99212.75;10343257;28;20049;-78
2023/04/13 17:02:14;;;;;;;3.95;2.05;;;;;;;12.66;66.74;99210.13;10355562;28;20038;-79
2023/04/13 17:07:17;;;;;;;4.15;1.85;;;;;;;12.62;67.02;99215.03;10362820;28;20130;-79
2023/04/13 17:12:18;;;;;;;4.43;1.90;;;;;;;12.17;67.33;99164.31;10365838;28;20409;-77
2023/04/13 17:17:19;;;;;;;3.90;1.70;;;;;;;12.09;67.52;99153.91;10345632;28;20073;-78
2023/04/13 17:22:21;;;;;;;4.40;2.00;;;;;;;12.41;67.99;99232.06;10355582;28;20069;-81
2023/04/13 17:27:21;;;;;;;4.32;2.00;;;;;;;12.33;68.62;99245.63;10350726;28;20046;-80
2023/04/13 17:32:22;;;;;;;4.32;1.80;;;;;;;11.60;68.73;99149.78;10343025;28;20053;-79
2023/04/13 17:37:23;;;;;;;8.75;1.80;;;;;;;11.76;69.07;99189.28;10348206;28;20041;-79
2023/04/13 17:42:25;;;;;;;5.18;1.70;;;;;;;12.18;68.71;99267.13;10351266;28;20043;-79
2023/04/13 17:47:25;;;;;;;6.80;1.50;;;;;;;12.09;68.63;99269.19;10348171;28;20564;-78
2023/04/13 17:52:26;;;;;;;5.82;1.48;;;;;;;12.04;68.84;99284.94;10373603;28;20045;-79
2023/04/13 17:57:28;;;;;;;3.47;1.40;;;;;;;11.97;68.70;99278.00;10372796;28;20045;-80
2023/04/13 18:02:29;;;;;;;3.00;1.30;;;;;;;11.93;68.99;99282.06;10370966;28;20119;-79
2023/04/13 18:07:30;;;;;;;5.97;1.30;;;;;;;11.87;68.50;99286.34;10342369;28;20086;-83
2023/04/13 18:12:31;;;;;;;2.05;1.20;;;;;;;11.79;67.69;99276.69;10379083;28;20502;-80
2023/04/13 18:17:33;;;;;;;10.20;1.17;;;;;;;11.79;66.99;99286.53;10356219;28;20124;-78
2023/04/13 18:22:34;;;;;;;1.88;1.02;;;;;;;11.78;67.04;99296.31;10331142;28;20383;-80
2023/04/13 18:27:35;;;;;;;4.88;1.20;;;;;;;11.53;66.61;99256.16;10331655;28;20078;-77
2023/04/13 18:32:36;;;;;;;4.03;0.90;;;;;;;11.26;67.03;99212.72;10371684;28;20069;-78
2023/04/13 18:37:37;;;;;;;2.55;1.00;;;;;;;11.56;67.02;99270.91;10370537;28;20038;-81
2023/04/13 18:42:40;;;;;;;5.38;1.10;;;;;;;11.49;67.32;99270.91;10375720;28;20092;-77
2023/04/13 18:47:41;;;;;;;1.95;0.95;;;;;;;11.47;67.39;99261.47;10379049;28;20038;-78
2023/04/13 18:52:42;;;;;;;2.53;1.00;;;;;;;11.33;67.65;99258.75;10377954;28;20050;-76
2023/04/13 18:57:43;;;;;;;3.13;1.10;;;;;;;11.29;67.81;99267.34;10378711;28;20080;-78
2023/04/13 19:02:47;;;;;;;1.92;0.90;;;;;;;11.23;68.46;99270.78;10378463;28;20042;-77
2023/04/13 19:07:58;;;;;;;2.30;0.93;;;;;;;10.99;68.13;99233.06;10377560;28;20060;-78
2023/04/13 19:12:59;;;;;;;2.08;1.10;;;;;;;11.13;68.22;99265.84;10376541;28;20077;-79
2023/04/13 19:18:01;;;;;;;2.55;1.08;;;;;;;10.97;68.14;99241.22;10344594;28;20074;-79
2023/04/13 19:23:01;;;;;;;2.60;1.13;;;;;;;11.03;68.59;99254.75;10360714;28;20502;-78
2023/04/13 19:28:02;;;;;;;2.20;1.17;;;;;;;11.07;68.41;99263.97;10376431;28;20046;-79
2023/04/13 19:33:03;;;;;;;3.20;1.02;;;;;;;11.02;68.32;99255.78;10376740;28;20033;-79
2023/04/13 19:38:05;;;;;;;3.72;1.00;;;;;;;11.00;68.72;99268.44;10353764;28;20038;-79
2023/04/13 19:43:06;;;;;;;2.78;0.93;;;;;;;10.86;68.52;99231.19;10336168;28;20160;-77
2023/04/13 19:48:06;;;;;;;2.83;0.90;;;;;;;10.47;68.25;99184.00;10336725;28;20156;-77
2023/04/13 19:53:07;;;;;;;1.80;0.98;;;;;;;10.66;68.30;99216.97;10333420;28;20128;-78
2023/04/13 19:58:08;;;;;;;2.35;0.90;;;;;;;10.93;68.34;99263.91;10335943;28;20066;-76
2023/04/13 20:03:09;;;;;;;1.30;0.68;;;;;;;10.91;68.48;99259.81;10334688;28;20526;-79
2023/04/13 20:08:10;;;;;;;2.88;0.80;;;;;;;10.69;68.41;99227.19;10345641;28;20058;-77
2023/04/13 20:13:11;;;;;;;2.15;1.00;;;;;;;10.78;68.39;99246.47;10334076;28;20046;-77
2023/04/13 20:18:11;;;;;;;4.10;1.33;;;;;;;10.77;68.43;99245.66;10333218;28;20479;-78
2023/04/13 20:23:12;;;;;;;4.22;1.00;;;;;;;10.74;68.49;99246.84;10333071;28;20520;-75
2023/04/13 20:28:13;;;;;;;1.48;0.90;;;;;;;10.22;68.60;99162.34;10332950;28;20049;-78
2023/04/13 20:33:14;;;;;;;1.33;0.70;;;;;;;10.82;68.57;99268.94;10333000;28;20045;-77
2023/04/13 20:38:15;;;;;;;3.92;1.10;;;;;;;10.89;68.36;99270.63;10333910;28;20133;-79
2023/04/13 20:43:16;;;;;;;2.55;1.10;;;;;;;10.33;68.04;99184.91;10332987;28;20477;-76
2023/04/13 20:48:17;;;;;;;2.53;1.00;;;;;;;10.75;67.99;99231.72;10333114;28;20403;-77
2023/04/13 20:53:19;;;;;;;3.28;1.20;;;;;;;10.67;68.07;99223.91;10332995;28;20101;-79
2023/04/13 20:58:19;;;;;;;1.95;1.00;;;;;;;10.79;68.05;99237.47;10332948;28;20038;-78
2023/04/13 21:03:29;;;;;;;3.85;1.02;;;;;;;10.85;68.20;99240.16;10337960;28;20414;-78
2023/04/13 21:08:30;;;;;;;4.47;1.40;;;;;;;10.97;68.25;99264.31;10373315;28;20466;-76
2023/04/13 21:13:31;;;;;;;3.88;1.17;;;;;;;10.75;68.04;99218.44;10350253;28;20050;-78
2023/04/13 21:18:33;;;;;;;1.98;1.00;;;;;;;10.87;68.01;99240.78;10332788;28;20136;-85
2023/04/13 21:23:36;;;;;;;4.00;1.35;;;;;;;10.59;68.13;99179.75;10331334;28;20451;-78
2023/04/13 21:28:36;;;;;;;3.63;1.20;;;;;;;10.40;68.09;99135.31;10331877;28;20561;-76
2023/04/13 21:33:37;;;;;;;2.38;1.15;;;;;;;10.61;67.98;99171.59;10332025;28;20141;-79
2023/04/13 21:38:39;;;;;;;5.30;1.30;;;;;;;10.90;67.93;99213.00;10331268;28;20038;-79
2023/04/13 21:43:41;;;;;;;3.17;1.10;;;;;;;10.94;67.65;99216.91;10330066;28;20555;-76
2023/04/13 21:48:42;;;;;;;3.10;1.17;;;;;;;10.78;67.68;99185.38;10329981;28;20117;-81
2023/04/13 21:53:43;;;;;;;1.88;1.15;;;;;;;10.95;67.19;99215.91;10331594;28;20137;-77
2023/04/13 21:58:44;;;;;;;2.78;1.20;;;;;;;11.00;67.15;99217.94;10330924;28;20128;-76
2023/04/13 22:03:46;;;;;;;4.15;1.00;;;;;;;10.96;67.26;99228.16;10330799;28;20050;-77
2023/04/13 22:08:47;;;;;;;2.00;1.10;;;;;;;10.92;67.50;99234.91;10331031;28;20116;-77
2023/04/13 22:13:47;;;;;;;2.75;1.20;;;;;;;10.47;67.56;99160.09;10331119;28;20570;-78
2023/04/13 22:18:48;;;;;;;2.83;1.02;;;;;;;10.85;67.60;99226.06;10338048;28;20417;-76
2023/04/13 22:23:49;;;;;;;3.10;1.23;;;;;;;10.71;67.52;99201.28;10338883;28;20042;-77
2023/04/13 22:28:50;;;;;;;3.25;1.50;;;;;;;10.65;67.79;99212.66;10338056;28;20070;-78
2023/04/13 22:33:51;;;;;;;3.17;1.10;;;;;;;10.58;67.97;99204.66;10338619;28;20049;-77
2023/04/13 22:38:53;;;;;;;3.17;1.38;;;;;;;10.67;67.83;99224.72;10338777;28;20047;-78
2023/04/13 22:43:54;;;;;;;2.47;1.35;;;;;;;10.26;68.03;99172.44;10337618;28;20177;-77
2023/04/13 22:48:55;;;;;;;3.28;1.42;;;;;;;10.57;68.00;99226.13;10338449;28;20116;-77
2023/04/13 22:53:56;;;;;;;3.38;1.40;;;;;;;10.60;68.22;99239.81;10337245;28;20038;-77
2023/04/13 22:58:57;;;;;;;2.55;1.15;;;;;;;10.47;68.18;99232.59;10337258;28;20046;-78
2023/04/13 23:03:57;;;;;;;2.65;1.38;;;;;;;10.30;68.68;99211.84;10336697;28;20087;-77
2023/04/13 23:08:58;;;;;;;2.67;1.27;;;;;;;10.39;69.10;99245.19;10337025;28;20086;-78
2023/04/13 23:13:59;;;;;;;3.40;1.58;;;;;;;10.26;69.18;99221.97;10335252;28;20054;-78
2023/04/13 23:19:00;;;;;;;3.10;1.30;;;;;;;9.81;69.55;99173.66;10337154;28;20046;-77
2023/04/13 23:24:01;;;;;;;4.93;1.63;;;;;;;10.15;70.19;99246.41;10335629;28;20044;-78